Terminal Aerodrome Forecast
Issued by NWS

Home | Current Version | Previous Version | Text Only | Print | Product List | Glossary On
Versions: 1 2 3 4 5 6 7 8 9 10 11 12 13 14 15 16 17
775
FTUS46 KHNX 262342
TAFMCE
TAF
KMCE 262342Z 2700/2724 27007KT P6SM BKN100
     FM270600 33006KT P6SM -SHRA BKN050 OVC100
     FM271400 32009KT P6SM OVC025
     FM271700 32016G23KT P6SM SCT030 BKN050 OVC100=

USA.gov is the U.S. government's official web portal to all federal, state and local government web resources and services.